sensor_id;sensor_type;location;lat;lon;timestamp;temperature;humidity
38514;DHT22;24282;48.400;10.808;2024-02-14T00:01:11;2.10;79.70
38514;DHT22;24282;48.400;10.808;2024-02-14T00:03:37;2.10;79.90
38514;DHT22;24282;48.400;10.808;2024-02-14T00:06:04;2.10;80.10
38514;DHT22;24282;48.400;10.808;2024-02-14T00:08:31;2.20;80.30
38514;DHT22;24282;48.400;10.808;2024-02-14T00:10:57;2.30;80.50
38514;DHT22;24282;48.400;10.808;2024-02-14T00:13:23;2.30;80.40
38514;DHT22;24282;48.400;10.808;2024-02-14T00:15:48;2.40;80.20
38514;DHT22;24282;48.400;10.808;2024-02-14T00:18:14;2.40;80.20
38514;DHT22;24282;48.400;10.808;2024-02-14T00:20:45;2.40;80.30
38514;DHT22;24282;48.400;10.808;2024-02-14T00:23:10;2.40;80.20
38514;DHT22;24282;48.400;10.808;2024-02-14T00:25:37;2.40;80.10
38514;DHT22;24282;48.400;10.808;2024-02-14T00:28:03;2.40;80.00
38514;DHT22;24282;48.400;10.808;2024-02-14T00:30:29;2.40;80.00
38514;DHT22;24282;48.400;10.808;2024-02-14T00:32:55;2.40;80.00
38514;DHT22;24282;48.400;10.808;2024-02-14T00:35:21;2.40;79.90
38514;DHT22;24282;48.400;10.808;2024-02-14T00:37:47;2.40;79.90
38514;DHT22;24282;48.400;10.808;2024-02-14T00:40:13;2.40;79.80
38514;DHT22;24282;48.400;10.808;2024-02-14T00:42:38;2.40;79.80
38514;DHT22;24282;48.400;10.808;2024-02-14T00:45:06;2.40;79.80
38514;DHT22;24282;48.400;10.808;2024-02-14T00:47:34;2.40;79.70
38514;DHT22;24282;48.400;10.808;2024-02-14T00:50:01;2.40;79.70
38514;DHT22;24282;48.400;10.808;2024-02-14T00:52:26;2.40;79.70
38514;DHT22;24282;48.400;10.808;2024-02-14T00:54:55;2.40;79.60
38514;DHT22;24282;48.400;10.808;2024-02-14T00:57:21;2.40;79.60
38514;DHT22;24282;48.400;10.808;2024-02-14T00:59:52;2.40;79.60
38514;DHT22;24282;48.400;10.808;2024-02-14T01:02:18;2.40;79.70
38514;DHT22;24282;48.400;10.808;2024-02-14T01:04:44;2.40;79.80
38514;DHT22;24282;48.400;10.808;2024-02-14T01:07:10;2.40;80.00
38514;DHT22;24282;48.400;10.808;2024-02-14T01:09:35;2.40;80.00
38514;DHT22;24282;48.400;10.808;2024-02-14T01:12:02;2.40;80.00
38514;DHT22;24282;48.400;10.808;2024-02-14T01:14:28;2.40;80.00
38514;DHT22;24282;48.400;10.808;2024-02-14T01:16:53;2.40;79.90
38514;DHT22;24282;48.400;10.808;2024-02-14T01:19:19;2.30;79.90
38514;DHT22;24282;48.400;10.808;2024-02-14T01:21:45;2.30;79.80
38514;DHT22;24282;48.400;10.808;2024-02-14T01:24:14;2.30;79.80
38514;DHT22;24282;48.400;10.808;2024-02-14T01:26:40;2.30;79.80
38514;DHT22;24282;48.400;10.808;2024-02-14T01:29:06;2.30;79.90
38514;DHT22;24282;48.400;10.808;2024-02-14T01:31:33;2.30;79.90
38514;DHT22;24282;48.400;10.808;2024-02-14T01:34:00;2.30;80.00
38514;DHT22;24282;48.400;10.808;2024-02-14T01:36:30;2.20;80.00
38514;DHT22;24282;48.400;10.808;2024-02-14T01:38:56;2.30;80.10
38514;DHT22;24282;48.400;10.808;2024-02-14T01:41:22;2.30;80.00
38514;DHT22;24282;48.400;10.808;2024-02-14T01:43:49;2.30;79.80
38514;DHT22;24282;48.400;10.808;2024-02-14T01:46:14;2.20;79.90
38514;DHT22;24282;48.400;10.808;2024-02-14T01:48:41;2.20;80.10
38514;DHT22;24282;48.400;10.808;2024-02-14T01:51:10;2.20;80.00
38514;DHT22;24282;48.400;10.808;2024-02-14T01:53:37;2.20;80.10
38514;DHT22;24282;48.400;10.808;2024-02-14T01:56:04;2.20;80.20
38514;DHT22;24282;48.400;10.808;2024-02-14T01:58:32;2.20;80.30
38514;DHT22;24282;48.400;10.808;2024-02-14T02:00:59;2.10;80.30
38514;DHT22;24282;48.400;10.808;2024-02-14T02:03:26;2.10;80.50
38514;DHT22;24282;48.400;10.808;2024-02-14T02:05:52;2.20;80.60
38514;DHT22;24282;48.400;10.808;2024-02-14T02:08:19;2.10;80.70
38514;DHT22;24282;48.400;10.808;2024-02-14T02:10:45;2.20;80.70
38514;DHT22;24282;48.400;10.808;2024-02-14T02:13:13;2.10;80.60
38514;DHT22;24282;48.400;10.808;2024-02-14T02:15:41;2.10;80.50
38514;DHT22;24282;48.400;10.808;2024-02-14T02:18:10;2.10;80.40
38514;DHT22;24282;48.400;10.808;2024-02-14T02:20:37;2.10;80.30
38514;DHT22;24282;48.400;10.808;2024-02-14T02:23:03;2.00;80.40
38514;DHT22;24282;48.400;10.808;2024-02-14T02:25:29;2.00;80.40
38514;DHT22;24282;48.400;10.808;2024-02-14T02:27:54;2.00;80.50
38514;DHT22;24282;48.400;10.808;2024-02-14T02:30:22;2.00;80.50
38514;DHT22;24282;48.400;10.808;2024-02-14T02:32:48;2.10;80.60
38514;DHT22;24282;48.400;10.808;2024-02-14T02:35:16;2.10;80.60
38514;DHT22;24282;48.400;10.808;2024-02-14T02:37:41;2.10;80.50
38514;DHT22;24282;48.400;10.808;2024-02-14T02:40:09;2.10;80.50
38514;DHT22;24282;48.400;10.808;2024-02-14T02:42:36;2.10;80.50
38514;DHT22;24282;48.400;10.808;2024-02-14T02:45:02;2.10;80.40
38514;DHT22;24282;48.400;10.808;2024-02-14T02:47:31;2.10;80.40
38514;DHT22;24282;48.400;10.808;2024-02-14T02:49:57;2.20;80.40
38514;DHT22;24282;48.400;10.808;2024-02-14T02:52:25;2.10;80.50
38514;DHT22;24282;48.400;10.808;2024-02-14T02:54:51;2.10;80.60
38514;DHT22;24282;48.400;10.808;2024-02-14T02:57:18;2.20;80.70
38514;DHT22;24282;48.400;10.808;2024-02-14T02:59:44;2.20;80.80
38514;DHT22;24282;48.400;10.808;2024-02-14T03:02:11;2.20;80.80
38514;DHT22;24282;48.400;10.808;2024-02-14T03:04:38;2.10;80.90
38514;DHT22;24282;48.400;10.808;2024-02-14T03:07:04;2.10;80.90
38514;DHT22;24282;48.400;10.808;2024-02-14T03:09:32;2.10;81.00
38514;DHT22;24282;48.400;10.808;2024-02-14T03:11:58;2.10;80.90
38514;DHT22;24282;48.400;10.808;2024-02-14T03:14:24;2.10;80.90
38514;DHT22;24282;48.400;10.808;2024-02-14T03:16:50;2.10;80.90
38514;DHT22;24282;48.400;10.808;2024-02-14T03:19:16;2.10;80.90
38514;DHT22;24282;48.400;10.808;2024-02-14T03:21:42;2.10;80.90
38514;DHT22;24282;48.400;10.808;2024-02-14T03:24:08;2.10;80.90
38514;DHT22;24282;48.400;10.808;2024-02-14T03:26:35;2.10;80.90
38514;DHT22;24282;48.400;10.808;2024-02-14T03:29:02;2.10;81.00
38514;DHT22;24282;48.400;10.808;2024-02-14T03:31:27;2.10;81.00
38514;DHT22;24282;48.400;10.808;2024-02-14T03:33:53;2.10;81.10
38514;DHT22;24282;48.400;10.808;2024-02-14T03:36:19;2.20;81.10
38514;DHT22;24282;48.400;10.808;2024-02-14T03:38:45;2.20;81.20
38514;DHT22;24282;48.400;10.808;2024-02-14T03:41:12;2.20;81.30
38514;DHT22;24282;48.400;10.808;2024-02-14T03:43:38;2.20;81.40
38514;DHT22;24282;48.400;10.808;2024-02-14T03:46:04;2.30;81.40
38514;DHT22;24282;48.400;10.808;2024-02-14T03:48:31;2.30;81.50
38514;DHT22;24282;48.400;10.808;2024-02-14T03:50:57;2.30;81.60
38514;DHT22;24282;48.400;10.808;2024-02-14T03:53:23;2.30;81.80
38514;DHT22;24282;48.400;10.808;2024-02-14T03:55:49;2.30;81.90
38514;DHT22;24282;48.400;10.808;2024-02-14T03:58:15;2.30;81.90
38514;DHT22;24282;48.400;10.808;2024-02-14T04:00:50;2.40;81.90
38514;DHT22;24282;48.400;10.808;2024-02-14T04:03:17;2.40;81.90
38514;DHT22;24282;48.400;10.808;2024-02-14T04:05:43;2.40;81.90
38514;DHT22;24282;48.400;10.808;2024-02-14T04:08:11;2.40;81.90
38514;DHT22;24282;48.400;10.808;2024-02-14T04:10:37;2.50;81.90
38514;DHT22;24282;48.400;10.808;2024-02-14T04:13:05;2.50;81.80
38514;DHT22;24282;48.400;10.808;2024-02-14T04:15:32;2.50;81.80
38514;DHT22;24282;48.400;10.808;2024-02-14T04:17:57;2.50;81.80
38514;DHT22;24282;48.400;10.808;2024-02-14T04:20:25;2.50;81.80
38514;DHT22;24282;48.400;10.808;2024-02-14T04:22:51;2.50;81.90
38514;DHT22;24282;48.400;10.808;2024-02-14T04:25:17;2.50;81.90
38514;DHT22;24282;48.400;10.808;2024-02-14T04:27:44;2.60;81.90
38514;DHT22;24282;48.400;10.808;2024-02-14T04:30:10;2.60;81.90
38514;DHT22;24282;48.400;10.808;2024-02-14T04:32:36;2.60;81.80
38514;DHT22;24282;48.400;10.808;2024-02-14T04:35:01;2.60;82.10
38514;DHT22;24282;48.400;10.808;2024-02-14T04:37:27;2.70;82.30
38514;DHT22;24282;48.400;10.808;2024-02-14T04:39:55;2.60;82.40
38514;DHT22;24282;48.400;10.808;2024-02-14T04:42:20;2.60;82.60
38514;DHT22;24282;48.400;10.808;2024-02-14T04:44:46;2.60;82.70
38514;DHT22;24282;48.400;10.808;2024-02-14T04:47:12;2.70;82.80
38514;DHT22;24282;48.400;10.808;2024-02-14T04:49:37;2.70;82.90
38514;DHT22;24282;48.400;10.808;2024-02-14T04:52:04;2.60;82.80
38514;DHT22;24282;48.400;10.808;2024-02-14T04:54:30;2.70;82.90
38514;DHT22;24282;48.400;10.808;2024-02-14T04:56:55;2.70;82.80
38514;DHT22;24282;48.400;10.808;2024-02-14T04:59:21;2.70;82.60
38514;DHT22;24282;48.400;10.808;2024-02-14T05:01:47;2.70;82.50
38514;DHT22;24282;48.400;10.808;2024-02-14T05:04:13;2.70;82.40
38514;DHT22;24282;48.400;10.808;2024-02-14T05:06:39;2.70;82.40
38514;DHT22;24282;48.400;10.808;2024-02-14T05:09:05;2.70;82.30
38514;DHT22;24282;48.400;10.808;2024-02-14T05:11:31;2.70;82.40
38514;DHT22;24282;48.400;10.808;2024-02-14T05:13:56;2.70;82.50
38514;DHT22;24282;48.400;10.808;2024-02-14T05:16:23;2.70;82.70
38514;DHT22;24282;48.400;10.808;2024-02-14T05:18:48;2.70;82.90
38514;DHT22;24282;48.400;10.808;2024-02-14T05:21:14;2.80;83.10
38514;DHT22;24282;48.400;10.808;2024-02-14T05:23:40;2.80;83.20
38514;DHT22;24282;48.400;10.808;2024-02-14T05:26:06;2.80;83.40
38514;DHT22;24282;48.400;10.808;2024-02-14T05:28:32;2.80;83.40
38514;DHT22;24282;48.400;10.808;2024-02-14T05:30:59;2.90;83.30
38514;DHT22;24282;48.400;10.808;2024-02-14T05:33:25;2.90;83.20
38514;DHT22;24282;48.400;10.808;2024-02-14T05:35:51;2.90;83.20
38514;DHT22;24282;48.400;10.808;2024-02-14T05:38:18;3.00;83.30
38514;DHT22;24282;48.400;10.808;2024-02-14T05:40:47;3.00;83.40
38514;DHT22;24282;48.400;10.808;2024-02-14T05:43:13;3.00;83.30
38514;DHT22;24282;48.400;10.808;2024-02-14T05:45:39;3.00;83.30
38514;DHT22;24282;48.400;10.808;2024-02-14T05:48:05;3.00;83.20
38514;DHT22;24282;48.400;10.808;2024-02-14T05:50:31;3.00;83.20
38514;DHT22;24282;48.400;10.808;2024-02-14T05:52:58;3.00;83.10
38514;DHT22;24282;48.400;10.808;2024-02-14T05:55:24;3.00;83.00
38514;DHT22;24282;48.400;10.808;2024-02-14T05:57:53;3.00;82.90
38514;DHT22;24282;48.400;10.808;2024-02-14T06:00:21;3.00;82.80
38514;DHT22;24282;48.400;10.808;2024-02-14T06:02:48;3.00;82.70
38514;DHT22;24282;48.400;10.808;2024-02-14T06:05:14;3.00;82.60
38514;DHT22;24282;48.400;10.808;2024-02-14T06:07:40;3.10;82.60
38514;DHT22;24282;48.400;10.808;2024-02-14T06:10:07;3.00;82.70
38514;DHT22;24282;48.400;10.808;2024-02-14T06:12:33;3.10;82.80
38514;DHT22;24282;48.400;10.808;2024-02-14T06:14:59;3.10;82.60
38514;DHT22;24282;48.400;10.808;2024-02-14T06:17:25;3.10;82.60
38514;DHT22;24282;48.400;10.808;2024-02-14T06:19:54;3.10;82.80
38514;DHT22;24282;48.400;10.808;2024-02-14T06:22:21;3.10;82.90
38514;DHT22;24282;48.400;10.808;2024-02-14T06:24:47;3.10;83.00
38514;DHT22;24282;48.400;10.808;2024-02-14T06:27:15;3.10;83.20
38514;DHT22;24282;48.400;10.808;2024-02-14T06:29:44;3.20;83.30
38514;DHT22;24282;48.400;10.808;2024-02-14T06:32:13;3.20;83.00
38514;DHT22;24282;48.400;10.808;2024-02-14T06:34:39;3.20;83.00
38514;DHT22;24282;48.400;10.808;2024-02-14T06:37:05;3.20;83.00
38514;DHT22;24282;48.400;10.808;2024-02-14T06:39:30;3.20;83.20
38514;DHT22;24282;48.400;10.808;2024-02-14T06:41:56;3.20;83.30
38514;DHT22;24282;48.400;10.808;2024-02-14T06:44:25;3.20;83.40
38514;DHT22;24282;48.400;10.808;2024-02-14T06:46:51;3.20;83.60
38514;DHT22;24282;48.400;10.808;2024-02-14T06:49:17;3.30;83.60
38514;DHT22;24282;48.400;10.808;2024-02-14T06:51:43;3.40;83.20
38514;DHT22;24282;48.400;10.808;2024-02-14T06:54:12;3.40;83.30
38514;DHT22;24282;48.400;10.808;2024-02-14T06:56:42;3.40;83.10
38514;DHT22;24282;48.400;10.808;2024-02-14T06:59:08;3.50;83.10
38514;DHT22;24282;48.400;10.808;2024-02-14T07:01:33;3.50;83.00
38514;DHT22;24282;48.400;10.808;2024-02-14T07:03:59;3.50;83.00
38514;DHT22;24282;48.400;10.808;2024-02-14T07:06:27;3.60;83.10
38514;DHT22;24282;48.400;10.808;2024-02-14T07:08:53;3.60;82.80
38514;DHT22;24282;48.400;10.808;2024-02-14T07:11:19;3.70;82.40
38514;DHT22;24282;48.400;10.808;2024-02-14T07:13:45;3.80;82.40
38514;DHT22;24282;48.400;10.808;2024-02-14T07:16:11;4.00;82.10
38514;DHT22;24282;48.400;10.808;2024-02-14T07:18:37;4.10;81.30
38514;DHT22;24282;48.400;10.808;2024-02-14T07:21:03;4.10;81.30
38514;DHT22;24282;48.400;10.808;2024-02-14T07:23:31;4.20;81.40
38514;DHT22;24282;48.400;10.808;2024-02-14T07:25:59;4.20;81.60
38514;DHT22;24282;48.400;10.808;2024-02-14T07:28:26;4.20;81.60
38514;DHT22;24282;48.400;10.808;2024-02-14T07:30:52;4.20;81.70
38514;DHT22;24282;48.400;10.808;2024-02-14T07:33:17;4.20;81.80
38514;DHT22;24282;48.400;10.808;2024-02-14T07:35:43;4.30;81.80
38514;DHT22;24282;48.400;10.808;2024-02-14T07:38:09;4.30;81.80
38514;DHT22;24282;48.400;10.808;2024-02-14T07:40:35;4.30;81.80
38514;DHT22;24282;48.400;10.808;2024-02-14T07:43:01;4.40;81.90
38514;DHT22;24282;48.400;10.808;2024-02-14T07:45:26;4.40;82.00
38514;DHT22;24282;48.400;10.808;2024-02-14T07:47:52;4.40;81.90
38514;DHT22;24282;48.400;10.808;2024-02-14T07:50:18;4.40;81.40
38514;DHT22;24282;48.400;10.808;2024-02-14T07:52:45;4.50;81.20
38514;DHT22;24282;48.400;10.808;2024-02-14T07:55:11;4.50;81.40
38514;DHT22;24282;48.400;10.808;2024-02-14T07:57:41;4.50;81.40
38514;DHT22;24282;48.400;10.808;2024-02-14T08:00:07;4.60;81.50
38514;DHT22;24282;48.400;10.808;2024-02-14T08:02:36;4.60;81.60
38514;DHT22;24282;48.400;10.808;2024-02-14T08:05:02;4.70;81.60
38514;DHT22;24282;48.400;10.808;2024-02-14T08:07:30;4.70;81.70
38514;DHT22;24282;48.400;10.808;2024-02-14T08:09:56;4.80;81.70
38514;DHT22;24282;48.400;10.808;2024-02-14T08:12:22;4.90;81.40
38514;DHT22;24282;48.400;10.808;2024-02-14T08:14:50;5.00;81.40
38514;DHT22;24282;48.400;10.808;2024-02-14T08:17:15;5.00;81.40
38514;DHT22;24282;48.400;10.808;2024-02-14T08:19:41;5.00;81.30
38514;DHT22;24282;48.400;10.808;2024-02-14T08:22:07;5.20;81.10
38514;DHT22;24282;48.400;10.808;2024-02-14T08:24:33;5.30;80.60
38514;DHT22;24282;48.400;10.808;2024-02-14T08:26:59;5.40;80.60
38514;DHT22;24282;48.400;10.808;2024-02-14T08:29:25;5.50;80.50
38514;DHT22;24282;48.400;10.808;2024-02-14T08:31:50;5.50;80.30
38514;DHT22;24282;48.400;10.808;2024-02-14T08:34:16;5.70;80.20
38514;DHT22;24282;48.400;10.808;2024-02-14T08:36:42;5.90;78.60
38514;DHT22;24282;48.400;10.808;2024-02-14T08:39:09;6.00;76.80
38514;DHT22;24282;48.400;10.808;2024-02-14T08:41:39;6.20;76.20
38514;DHT22;24282;48.400;10.808;2024-02-14T08:44:07;6.40;74.80
38514;DHT22;24282;48.400;10.808;2024-02-14T08:46:33;6.40;74.40
38514;DHT22;24282;48.400;10.808;2024-02-14T08:49:00;6.50;74.20
38514;DHT22;24282;48.400;10.808;2024-02-14T08:51:28;6.50;74.30
38514;DHT22;24282;48.400;10.808;2024-02-14T08:53:54;6.50;73.50
38514;DHT22;24282;48.400;10.808;2024-02-14T08:56:22;6.50;73.00
38514;DHT22;24282;48.400;10.808;2024-02-14T08:58:49;6.70;73.00
38514;DHT22;24282;48.400;10.808;2024-02-14T09:01:14;6.70;72.50
38514;DHT22;24282;48.400;10.808;2024-02-14T09:03:44;6.70;73.20
38514;DHT22;24282;48.400;10.808;2024-02-14T09:06:14;6.80;73.00
38514;DHT22;24282;48.400;10.808;2024-02-14T09:08:41;6.90;72.90
38514;DHT22;24282;48.400;10.808;2024-02-14T09:11:06;6.90;73.30
38514;DHT22;24282;48.400;10.808;2024-02-14T09:13:33;7.00;72.90
38514;DHT22;24282;48.400;10.808;2024-02-14T09:15:59;6.90;73.40
38514;DHT22;24282;48.400;10.808;2024-02-14T09:18:25;7.10;73.10
38514;DHT22;24282;48.400;10.808;2024-02-14T09:20:54;7.20;72.10
38514;DHT22;24282;48.400;10.808;2024-02-14T09:23:19;7.20;72.30
38514;DHT22;24282;48.400;10.808;2024-02-14T09:25:48;7.20;71.50
38514;DHT22;24282;48.400;10.808;2024-02-14T09:28:15;7.30;71.80
38514;DHT22;24282;48.400;10.808;2024-02-14T09:30:41;7.40;71.80
38514;DHT22;24282;48.400;10.808;2024-02-14T09:33:07;7.40;72.70
38514;DHT22;24282;48.400;10.808;2024-02-14T09:35:33;7.50;73.80
38514;DHT22;24282;48.400;10.808;2024-02-14T09:38:00;7.60;73.60
38514;DHT22;24282;48.400;10.808;2024-02-14T09:40:26;7.70;72.60
38514;DHT22;24282;48.400;10.808;2024-02-14T09:42:56;7.90;72.60
38514;DHT22;24282;48.400;10.808;2024-02-14T09:45:27;7.90;71.80
38514;DHT22;24282;48.400;10.808;2024-02-14T09:47:57;8.10;70.90
38514;DHT22;24282;48.400;10.808;2024-02-14T09:50:23;8.10;70.40
38514;DHT22;24282;48.400;10.808;2024-02-14T09:52:50;8.10;70.30
38514;DHT22;24282;48.400;10.808;2024-02-14T09:55:17;8.30;69.90
38514;DHT22;24282;48.400;10.808;2024-02-14T09:57:43;8.30;69.30
38514;DHT22;24282;48.400;10.808;2024-02-14T10:00:13;8.50;68.80
38514;DHT22;24282;48.400;10.808;2024-02-14T10:02:41;8.60;68.10
38514;DHT22;24282;48.400;10.808;2024-02-14T10:05:08;8.70;67.60
38514;DHT22;24282;48.400;10.808;2024-02-14T10:07:43;8.70;67.40
38514;DHT22;24282;48.400;10.808;2024-02-14T10:10:10;8.80;67.30
38514;DHT22;24282;48.400;10.808;2024-02-14T10:12:36;8.80;67.40
38514;DHT22;24282;48.400;10.808;2024-02-14T10:15:02;8.90;67.10
38514;DHT22;24282;48.400;10.808;2024-02-14T10:17:32;9.00;67.30
38514;DHT22;24282;48.400;10.808;2024-02-14T10:19:58;9.10;68.50
38514;DHT22;24282;48.400;10.808;2024-02-14T10:22:25;9.20;68.80
38514;DHT22;24282;48.400;10.808;2024-02-14T10:24:57;9.30;67.60
38514;DHT22;24282;48.400;10.808;2024-02-14T10:27:23;9.40;66.70
38514;DHT22;24282;48.400;10.808;2024-02-14T10:29:49;9.50;65.90
38514;DHT22;24282;48.400;10.808;2024-02-14T10:32:15;9.50;65.80
38514;DHT22;24282;48.400;10.808;2024-02-14T10:34:43;9.50;66.20
38514;DHT22;24282;48.400;10.808;2024-02-14T10:37:14;9.50;66.30
38514;DHT22;24282;48.400;10.808;2024-02-14T10:39:41;9.50;67.70
38514;DHT22;24282;48.400;10.808;2024-02-14T10:42:07;9.60;68.00
38514;DHT22;24282;48.400;10.808;2024-02-14T10:44:34;9.50;68.60
38514;DHT22;24282;48.400;10.808;2024-02-14T10:47:02;9.40;68.50
38514;DHT22;24282;48.400;10.808;2024-02-14T10:49:33;9.30;68.30
38514;DHT22;24282;48.400;10.808;2024-02-14T10:51:59;9.30;68.60
38514;DHT22;24282;48.400;10.808;2024-02-14T10:54:29;9.30;68.10
38514;DHT22;24282;48.400;10.808;2024-02-14T10:56:58;9.30;68.10
38514;DHT22;24282;48.400;10.808;2024-02-14T10:59:26;9.30;67.50
38514;DHT22;24282;48.400;10.808;2024-02-14T11:01:52;9.40;67.10
38514;DHT22;24282;48.400;10.808;2024-02-14T11:04:18;9.40;67.00
38514;DHT22;24282;48.400;10.808;2024-02-14T11:06:48;9.40;66.80
38514;DHT22;24282;48.400;10.808;2024-02-14T11:09:14;9.40;66.70
38514;DHT22;24282;48.400;10.808;2024-02-14T11:11:44;9.50;65.90
38514;DHT22;24282;48.400;10.808;2024-02-14T11:14:10;9.50;66.80
38514;DHT22;24282;48.400;10.808;2024-02-14T11:16:38;9.50;66.10
38514;DHT22;24282;48.400;10.808;2024-02-14T11:19:08;9.70;66.40
38514;DHT22;24282;48.400;10.808;2024-02-14T11:21:46;9.90;65.10
38514;DHT22;24282;48.400;10.808;2024-02-14T11:24:13;9.90;65.10
38514;DHT22;24282;48.400;10.808;2024-02-14T11:26:47;10.00;65.80
38514;DHT22;24282;48.400;10.808;2024-02-14T11:29:18;10.20;64.60
38514;DHT22;24282;48.400;10.808;2024-02-14T11:31:47;10.40;64.30
38514;DHT22;24282;48.400;10.808;2024-02-14T11:34:16;10.50;63.90
38514;DHT22;24282;48.400;10.808;2024-02-14T11:36:44;10.60;63.70
38514;DHT22;24282;48.400;10.808;2024-02-14T11:39:10;10.70;63.40
38514;DHT22;24282;48.400;10.808;2024-02-14T11:41:38;10.80;63.00
38514;DHT22;24282;48.400;10.808;2024-02-14T11:44:04;10.80;63.10
38514;DHT22;24282;48.400;10.808;2024-02-14T11:46:31;10.80;63.90
38514;DHT22;24282;48.400;10.808;2024-02-14T11:48:59;10.90;62.90
38514;DHT22;24282;48.400;10.808;2024-02-14T11:51:29;10.80;63.60
38514;DHT22;24282;48.400;10.808;2024-02-14T11:53:57;10.80;64.00
38514;DHT22;24282;48.400;10.808;2024-02-14T11:56:36;11.00;63.70
38514;DHT22;24282;48.400;10.808;2024-02-14T11:59:03;10.90;64.40
38514;DHT22;24282;48.400;10.808;2024-02-14T12:01:34;11.00;65.10
38514;DHT22;24282;48.400;10.808;2024-02-14T12:04:01;11.00;64.70
38514;DHT22;24282;48.400;10.808;2024-02-14T12:06:28;11.10;64.50
38514;DHT22;24282;48.400;10.808;2024-02-14T12:08:54;11.30;64.40
38514;DHT22;24282;48.400;10.808;2024-02-14T12:11:21;11.40;64.70
38514;DHT22;24282;48.400;10.808;2024-02-14T12:13:50;11.50;65.00
38514;DHT22;24282;48.400;10.808;2024-02-14T12:16:19;11.70;65.10
38514;DHT22;24282;48.400;10.808;2024-02-14T12:18:45;11.90;65.00
38514;DHT22;24282;48.400;10.808;2024-02-14T12:21:10;12.00;65.20
38514;DHT22;24282;48.400;10.808;2024-02-14T12:23:37;11.90;65.40
38514;DHT22;24282;48.400;10.808;2024-02-14T12:26:03;12.10;65.10
38514;DHT22;24282;48.400;10.808;2024-02-14T12:28:30;12.10;65.80
38514;DHT22;24282;48.400;10.808;2024-02-14T12:30:57;12.10;66.00
38514;DHT22;24282;48.400;10.808;2024-02-14T12:33:27;12.20;65.80
38514;DHT22;24282;48.400;10.808;2024-02-14T12:35:54;12.20;66.00
38514;DHT22;24282;48.400;10.808;2024-02-14T12:38:21;12.40;66.10
38514;DHT22;24282;48.400;10.808;2024-02-14T12:40:48;12.60;65.10
38514;DHT22;24282;48.400;10.808;2024-02-14T12:43:15;12.80;64.70
38514;DHT22;24282;48.400;10.808;2024-02-14T12:45:44;12.80;65.60
38514;DHT22;24282;48.400;10.808;2024-02-14T12:48:11;13.00;64.70
38514;DHT22;24282;48.400;10.808;2024-02-14T12:50:40;13.00;64.90
38514;DHT22;24282;48.400;10.808;2024-02-14T12:53:13;13.00;65.00
38514;DHT22;24282;48.400;10.808;2024-02-14T12:55:39;12.90;65.10
38514;DHT22;24282;48.400;10.808;2024-02-14T12:58:04;12.90;64.90
38514;DHT22;24282;48.400;10.808;2024-02-14T13:00:30;12.80;64.70
38514;DHT22;24282;48.400;10.808;2024-02-14T13:02:57;12.70;65.00
38514;DHT22;24282;48.400;10.808;2024-02-14T13:05:23;12.60;65.50
38514;DHT22;24282;48.400;10.808;2024-02-14T13:07:51;12.70;64.80
38514;DHT22;24282;48.400;10.808;2024-02-14T13:10:17;12.80;64.40
38514;DHT22;24282;48.400;10.808;2024-02-14T13:12:43;12.70;64.40
38514;DHT22;24282;48.400;10.808;2024-02-14T13:15:11;12.70;65.00
38514;DHT22;24282;48.400;10.808;2024-02-14T13:17:37;12.70;64.40
38514;DHT22;24282;48.400;10.808;2024-02-14T13:20:03;12.80;64.30
38514;DHT22;24282;48.400;10.808;2024-02-14T13:22:28;12.70;64.70
38514;DHT22;24282;48.400;10.808;2024-02-14T13:24:54;12.60;65.40
38514;DHT22;24282;48.400;10.808;2024-02-14T13:27:21;12.60;65.30
38514;DHT22;24282;48.400;10.808;2024-02-14T13:29:48;12.70;65.00
38514;DHT22;24282;48.400;10.808;2024-02-14T13:32:15;12.80;64.80
38514;DHT22;24282;48.400;10.808;2024-02-14T13:34:41;12.80;64.90
38514;DHT22;24282;48.400;10.808;2024-02-14T13:37:06;13.00;64.70
38514;DHT22;24282;48.400;10.808;2024-02-14T13:39:32;13.00;64.90
38514;DHT22;24282;48.400;10.808;2024-02-14T13:41:58;13.10;64.50
38514;DHT22;24282;48.400;10.808;2024-02-14T13:44:25;13.20;64.00
38514;DHT22;24282;48.400;10.808;2024-02-14T13:46:51;13.10;64.50
38514;DHT22;24282;48.400;10.808;2024-02-14T13:49:18;13.20;64.40
38514;DHT22;24282;48.400;10.808;2024-02-14T13:51:56;13.20;65.00
38514;DHT22;24282;48.400;10.808;2024-02-14T13:54:23;13.20;65.20
38514;DHT22;24282;48.400;10.808;2024-02-14T13:56:50;13.20;64.70
38514;DHT22;24282;48.400;10.808;2024-02-14T13:59:16;13.20;64.40
38514;DHT22;24282;48.400;10.808;2024-02-14T14:01:42;13.20;64.80
38514;DHT22;24282;48.400;10.808;2024-02-14T14:04:08;13.10;64.70
38514;DHT22;24282;48.400;10.808;2024-02-14T14:06:34;13.20;64.80
38514;DHT22;24282;48.400;10.808;2024-02-14T14:09:00;13.10;64.60
38514;DHT22;24282;48.400;10.808;2024-02-14T14:11:26;13.10;65.00
38514;DHT22;24282;48.400;10.808;2024-02-14T14:13:52;13.00;64.80
38514;DHT22;24282;48.400;10.808;2024-02-14T14:16:20;12.90;65.60
38514;DHT22;24282;48.400;10.808;2024-02-14T14:18:48;12.90;65.30
38514;DHT22;24282;48.400;10.808;2024-02-14T14:21:14;12.80;65.70
38514;DHT22;24282;48.400;10.808;2024-02-14T14:23:41;12.70;65.80
38514;DHT22;24282;48.400;10.808;2024-02-14T14:26:06;12.60;66.20
38514;DHT22;24282;48.400;10.808;2024-02-14T14:28:32;12.50;66.80
38514;DHT22;24282;48.400;10.808;2024-02-14T14:30:58;12.50;66.90
38514;DHT22;24282;48.400;10.808;2024-02-14T14:33:26;12.50;66.90
38514;DHT22;24282;48.400;10.808;2024-02-14T14:35:52;12.40;67.20
38514;DHT22;24282;48.400;10.808;2024-02-14T14:38:19;12.50;67.30
38514;DHT22;24282;48.400;10.808;2024-02-14T14:40:46;12.40;67.30
38514;DHT22;24282;48.400;10.808;2024-02-14T14:43:14;12.40;67.90
38514;DHT22;24282;48.400;10.808;2024-02-14T14:45:41;12.30;68.00
38514;DHT22;24282;48.400;10.808;2024-02-14T14:48:08;12.40;67.60
38514;DHT22;24282;48.400;10.808;2024-02-14T14:50:36;12.30;67.70
38514;DHT22;24282;48.400;10.808;2024-02-14T14:53:03;12.40;67.30
38514;DHT22;24282;48.400;10.808;2024-02-14T14:55:50;12.40;67.40
38514;DHT22;24282;48.400;10.808;2024-02-14T14:58:16;12.40;67.50
38514;DHT22;24282;48.400;10.808;2024-02-14T15:00:43;12.30;68.10
38514;DHT22;24282;48.400;10.808;2024-02-14T15:03:09;12.30;67.80
38514;DHT22;24282;48.400;10.808;2024-02-14T15:05:36;12.30;67.80
38514;DHT22;24282;48.400;10.808;2024-02-14T15:08:07;12.20;67.80
38514;DHT22;24282;48.400;10.808;2024-02-14T15:10:33;12.20;68.50
38514;DHT22;24282;48.400;10.808;2024-02-14T15:13:00;12.20;67.90
38514;DHT22;24282;48.400;10.808;2024-02-14T15:15:25;12.10;68.40
38514;DHT22;24282;48.400;10.808;2024-02-14T15:17:51;12.00;68.70
38514;DHT22;24282;48.400;10.808;2024-02-14T15:20:17;12.00;68.90
38514;DHT22;24282;48.400;10.808;2024-02-14T15:22:43;12.10;68.70
38514;DHT22;24282;48.400;10.808;2024-02-14T15:25:08;11.90;68.80